createdAt,value
2019-03-22T00:00:28.172Z,40.80
2019-03-22T00:03:00.958Z,40.07
2019-03-22T00:05:31.975Z,40.70
2019-03-22T00:08:05.277Z,40.00
2019-03-22T00:10:36.463Z,41.07
2019-03-22T00:13:07.585Z,40.67
2019-03-22T00:15:40.847Z,39.87
2019-03-22T00:18:11.993Z,40.93
2019-03-22T00:20:43.202Z,41.20
2019-03-22T00:23:14.408Z,40.37
2019-03-22T00:25:45.580Z,40.07
2019-03-22T00:28:24.912Z,41.93
2019-03-22T00:31:26.160Z,42.57
2019-03-22T00:33:57.294Z,41.60
2019-03-22T00:36:35.056Z,40.87
2019-03-22T00:39:07.108Z,41.40
2019-03-22T00:41:43.242Z,41.83
2019-03-22T00:44:15.427Z,42.03
2019-03-22T00:46:46.626Z,40.23
2019-03-22T00:49:17.750Z,41.10
2019-03-22T00:51:48.985Z,41.53
2019-03-22T00:54:20.098Z,41.90
2019-03-22T00:56:51.228Z,41.73
2019-03-22T00:59:22.438Z,41.30
2019-03-22T01:01:53.708Z,42.77
2019-03-22T01:04:24.832Z,42.53
2019-03-22T01:06:56.071Z,42.63
2019-03-22T01:09:27.462Z,39.30
2019-03-22T01:11:58.601Z,43.57
2019-03-22T01:14:55.286Z,41.77
2019-03-22T01:17:26.499Z,43.87
2019-03-22T01:19:57.640Z,43.23
2019-03-22T01:22:33.481Z,43.67
2019-03-22T01:25:05.658Z,43.87
2019-03-22T01:27:40.868Z,43.03
2019-03-22T01:30:20.046Z,44.53
2019-03-22T01:32:51.184Z,43.03
2019-03-22T01:35:22.295Z,43.47
2019-03-22T01:38:10.316Z,43.77
2019-03-22T01:40:41.561Z,42.87
2019-03-22T01:43:12.771Z,43.53
2019-03-22T01:45:43.903Z,43.40
2019-03-22T01:48:15.099Z,42.87
2019-03-22T01:50:46.268Z,42.97
2019-03-22T01:53:17.297Z,41.67
2019-03-22T01:55:54.186Z,42.73
2019-03-22T01:58:25.289Z,41.37
2019-03-22T02:00:56.538Z,41.10
2019-03-22T02:03:27.719Z,41.77
2019-03-22T02:06:04.440Z,42.50
2019-03-22T02:08:35.605Z,41.67
2019-03-22T02:11:21.424Z,42.63
2019-03-22T02:14:03.776Z,40.90
2019-03-22T02:16:40.813Z,41.40
2019-03-22T02:19:11.943Z,43.80
2019-03-22T02:21:43.876Z,42.70
2019-03-22T02:24:15.014Z,43.80
2019-03-22T02:27:00.684Z,41.30
2019-03-22T02:29:31.909Z,41.73
2019-03-22T02:32:13.267Z,40.87
2019-03-22T02:34:44.443Z,40.83
2019-03-22T02:37:15.625Z,40.47
2019-03-22T02:39:47.081Z,40.03
2019-03-22T02:42:18.283Z,39.70
2019-03-22T02:44:49.402Z,41.77
2019-03-22T02:47:20.605Z,39.93
2019-03-22T02:50:11.686Z,39.23
2019-03-22T02:52:34.762Z,38.70
2019-03-22T02:55:06.498Z,40.43
2019-03-22T02:57:37.814Z,38.80
2019-03-22T03:00:10.349Z,39.47
2019-03-22T03:02:41.609Z,40.10
2019-03-22T03:05:12.880Z,38.20
2019-03-22T03:07:44.277Z,38.00
2019-03-22T03:10:15.608Z,38.87
2019-03-22T03:13:03.117Z,37.17
2019-03-22T03:15:34.331Z,36.13
2019-03-22T03:18:05.455Z,36.37
2019-03-22T03:20:37.954Z,36.20
2019-03-22T03:23:09.082Z,36.80
2019-03-22T03:25:40.302Z,35.70
2019-03-22T03:28:11.500Z,35.67
2019-03-22T03:30:42.711Z,35.17
2019-03-22T03:33:13.960Z,36.30
2019-03-22T03:35:45.096Z,36.80
2019-03-22T03:38:16.270Z,37.37
2019-03-22T03:40:54.470Z,36.37
2019-03-22T03:43:25.591Z,34.73
2019-03-22T03:45:56.810Z,37.43
2019-03-22T03:48:40.358Z,37.00
2019-03-22T03:51:14.832Z,35.90
2019-03-22T03:53:45.869Z,37.00
2019-03-22T03:56:17.111Z,35.67
2019-03-22T03:58:52.778Z,34.70
2019-03-22T04:01:21.147Z,34.63
2019-03-22T04:03:54.325Z,34.47
2019-03-22T04:06:25.857Z,33.83
2019-03-22T04:08:56.897Z,35.43
2019-03-22T04:11:28.098Z,33.97
2019-03-22T04:14:05.464Z,33.80
2019-03-22T04:16:44.569Z,35.07
2019-03-22T04:19:15.675Z,36.07
2019-03-22T04:21:46.788Z,36.17
2019-03-22T04:24:17.927Z,34.50
2019-03-22T04:26:49.134Z,34.37
2019-03-22T04:29:20.321Z,33.03
2019-03-22T04:31:51.396Z,32.77
2019-03-22T04:34:22.604Z,33.07
2019-03-22T04:36:58.910Z,32.17
2019-03-22T04:39:30.192Z,33.10
2019-03-22T04:42:02.455Z,33.70
2019-03-22T04:45:00.698Z,33.80
2019-03-22T04:47:33.115Z,32.35
2019-03-22T04:50:04.838Z,33.17
2019-03-22T04:52:35.972Z,34.07
2019-03-22T04:55:07.440Z,32.30
2019-03-22T04:57:49.438Z,31.90
2019-03-22T05:00:20.809Z,33.97
2019-03-22T05:02:52.239Z,31.67
2019-03-22T05:05:23.764Z,32.67
2019-03-22T05:07:54.905Z,32.33
2019-03-22T05:10:32.029Z,31.47
2019-03-22T05:13:05.772Z,32.70
2019-03-22T05:15:37.979Z,32.80
2019-03-22T05:18:09.520Z,31.23
2019-03-22T05:20:49.102Z,30.93
2019-03-22T05:23:25.360Z,32.63
2019-03-22T05:25:58.151Z,31.70
2019-03-22T05:28:39.229Z,29.87
2019-03-22T05:31:46.194Z,31.50
2019-03-22T05:34:17.380Z,32.70
2019-03-22T05:36:48.491Z,33.13
2019-03-22T05:39:19.640Z,31.90
2019-03-22T05:41:50.792Z,30.50
2019-03-22T05:44:21.972Z,30.87
2019-03-22T05:47:00.350Z,30.50
2019-03-22T05:49:33.602Z,29.70
2019-03-22T05:52:06.049Z,29.17
2019-03-22T05:54:37.248Z,30.77
2019-03-22T05:57:13.214Z,30.23
2019-03-22T05:59:44.829Z,30.13
2019-03-22T06:02:20.747Z,30.07
2019-03-22T06:04:55.597Z,30.17
2019-03-22T06:07:30.849Z,29.80
2019-03-22T06:10:22.068Z,29.47
2019-03-22T06:13:00.724Z,30.33
2019-03-22T06:15:41.684Z,28.80
2019-03-22T06:18:24.635Z,29.77
2019-03-22T06:20:55.917Z,29.30
2019-03-22T06:23:37.264Z,29.83
2019-03-22T06:26:13.123Z,29.77
2019-03-22T06:28:47.471Z,29.63
2019-03-22T06:31:20.857Z,28.47
2019-03-22T06:33:53.130Z,28.30
2019-03-22T06:36:24.357Z,28.00
2019-03-22T06:39:01.474Z,28.43
2019-03-22T06:41:33.621Z,28.30
2019-03-22T06:44:11.828Z,28.80
2019-03-22T06:46:42.995Z,27.03
2019-03-22T06:49:15.130Z,28.00
2019-03-22T06:51:46.469Z,26.63
2019-03-22T06:54:17.607Z,27.90
2019-03-22T06:56:48.853Z,28.83
2019-03-22T06:59:20.091Z,26.83
2019-03-22T07:02:00.654Z,28.87
2019-03-22T07:04:33.863Z,27.50
2019-03-22T07:07:05.156Z,27.80
2019-03-22T07:09:49.479Z,28.23
2019-03-22T07:12:20.716Z,26.83
2019-03-22T07:14:51.880Z,26.83
2019-03-22T07:17:26.913Z,27.23
2019-03-22T07:19:59.085Z,26.10
2019-03-22T07:22:40.820Z,27.93
2019-03-22T07:25:12.226Z,27.40
2019-03-22T07:27:43.348Z,28.07
2019-03-22T07:30:18.867Z,27.13
2019-03-22T07:33:01.146Z,27.80
2019-03-22T07:35:32.389Z,27.07
2019-03-22T07:38:16.717Z,27.23
2019-03-22T07:41:05.876Z,24.13
2019-03-22T07:43:37.057Z,25.70
2019-03-22T07:46:08.186Z,25.77
2019-03-22T07:48:39.316Z,25.03
2019-03-22T07:51:19.361Z,23.00
2019-03-22T07:54:07.318Z,19.93
2019-03-22T07:57:03.021Z,18.97
2019-03-22T07:59:34.068Z,20.67
2019-03-22T08:02:09.363Z,22.30
2019-03-22T08:04:49.556Z,20.80
2019-03-22T08:07:20.715Z,21.03
2019-03-22T08:10:08.422Z,21.20
2019-03-22T08:12:39.612Z,20.73
2019-03-22T08:15:11.129Z,21.63
2019-03-22T08:17:44.416Z,21.43
2019-03-22T08:20:15.608Z,21.83
2019-03-22T08:22:46.845Z,22.33
2019-03-22T08:25:18.129Z,21.97
2019-03-22T08:27:49.386Z,21.10
2019-03-22T08:30:20.569Z,21.20
2019-03-22T08:32:53.765Z,20.17
2019-03-22T08:35:24.959Z,21.33
2019-03-22T08:37:59.246Z,20.73
2019-03-22T08:40:30.442Z,20.30
2019-03-22T08:43:31.542Z,20.73
2019-03-22T08:46:02.691Z,19.83
2019-03-22T08:48:33.948Z,20.30
2019-03-22T08:51:05.250Z,20.60
2019-03-22T08:53:54.667Z,20.30
2019-03-22T08:56:16.969Z,19.07
2019-03-22T08:58:54.033Z,20.23
2019-03-22T09:01:25.296Z,19.37
2019-03-22T09:03:57.543Z,17.73
2019-03-22T09:06:28.706Z,18.43
2019-03-22T09:09:01.808Z,18.33
2019-03-22T09:11:34.079Z,17.77
2019-03-22T09:14:07.261Z,15.83
2019-03-22T09:16:39.502Z,17.03
2019-03-22T09:19:12.722Z,15.17
2019-03-22T09:21:46.015Z,14.50
2019-03-22T09:24:38.556Z,14.10
2019-03-22T09:26:59.560Z,13.50
2019-03-22T09:29:31.731Z,13.70
2019-03-22T09:32:06.436Z,12.33
2019-03-22T09:34:37.611Z,12.77
2019-03-22T09:37:09.052Z,12.13
2019-03-22T09:39:40.606Z,11.67
2019-03-22T09:42:12.969Z,10.87
2019-03-22T09:45:02.615Z,11.70
2019-03-22T09:47:34.992Z,12.37
2019-03-22T09:50:07.585Z,11.47
2019-03-22T09:52:42.522Z,10.37
2019-03-22T09:55:24.871Z,10.77
2019-03-22T09:57:59.674Z,10.57
2019-03-22T10:00:40.053Z,10.00
2019-03-22T10:03:11.305Z,10.13
2019-03-22T10:05:51.740Z,10.20
2019-03-22T10:08:22.981Z,10.10
2019-03-22T10:10:59.831Z,9.93
2019-03-22T10:13:35.629Z,9.77
2019-03-22T10:16:13.821Z,9.77
2019-03-22T10:18:44.910Z,9.30
2019-03-22T10:21:22.396Z,9.13
2019-03-22T10:23:50.164Z,9.23
2019-03-22T10:26:21.277Z,9.03
2019-03-22T10:28:52.565Z,8.47
2019-03-22T10:31:36.212Z,9.27
2019-03-22T10:33:56.626Z,8.63
2019-03-22T10:36:28.881Z,8.30
2019-03-22T10:39:00.103Z,9.40
2019-03-22T10:42:02.258Z,9.13
2019-03-22T10:44:33.476Z,9.70
2019-03-22T10:47:04.645Z,8.70
2019-03-22T10:49:41.895Z,9.00
2019-03-22T10:52:13.072Z,8.33
2019-03-22T10:54:47.817Z,9.60
2019-03-22T10:57:20.136Z,8.87
2019-03-22T10:59:55.216Z,8.93
2019-03-22T11:02:26.479Z,9.17
2019-03-22T11:04:57.795Z,9.37
2019-03-22T11:07:33.665Z,9.53
2019-03-22T11:10:07.313Z,8.70
2019-03-22T11:12:47.648Z,9.30
2019-03-22T11:15:18.906Z,8.90
2019-03-22T11:17:50.237Z,9.23
2019-03-22T11:20:39.854Z,8.60
2019-03-22T11:23:12.066Z,9.17
2019-03-22T11:25:43.163Z,8.57
2019-03-22T11:28:14.340Z,8.90
2019-03-22T11:30:47.571Z,9.27
2019-03-22T11:33:18.749Z,9.10
2019-03-22T11:36:03.796Z,10.67
2019-03-22T11:38:39.299Z,10.97
2019-03-22T11:41:20.003Z,10.83
2019-03-22T11:44:04.516Z,12.20
2019-03-22T11:46:39.103Z,11.13
2019-03-22T11:49:10.335Z,9.00
2019-03-22T11:51:41.608Z,8.77
2019-03-22T11:54:12.783Z,9.60
2019-03-22T11:56:44.029Z,9.33
2019-03-22T11:59:21.390Z,8.77
2019-03-22T12:01:52.558Z,9.13
2019-03-22T12:04:25.815Z,9.13
2019-03-22T12:06:57.033Z,8.70
2019-03-22T12:09:28.218Z,8.33
2019-03-22T12:11:59.377Z,8.63
2019-03-22T12:14:30.626Z,8.13
2019-03-22T12:17:01.833Z,8.43
2019-03-22T12:19:33.235Z,8.33
2019-03-22T12:22:05.640Z,7.60
2019-03-22T12:24:36.785Z,8.00
2019-03-22T12:27:07.926Z,7.80
2019-03-22T12:29:40.192Z,7.93
2019-03-22T12:32:36.074Z,7.63
2019-03-22T12:35:07.641Z,7.60
2019-03-22T12:37:54.073Z,7.47
2019-03-22T12:40:25.288Z,7.57
2019-03-22T12:42:57.438Z,8.03
2019-03-22T12:45:28.886Z,8.33
2019-03-22T12:48:06.260Z,8.73
2019-03-22T12:50:37.504Z,8.10
2019-03-22T12:53:08.730Z,8.20
2019-03-22T12:55:40.007Z,7.77
2019-03-22T12:58:18.104Z,7.67
2019-03-22T13:00:49.309Z,6.83
2019-03-22T13:03:24.312Z,7.60
2019-03-22T13:05:55.554Z,8.17
2019-03-22T13:08:34.743Z,7.60
2019-03-22T13:11:06.418Z,6.77
2019-03-22T13:13:37.528Z,7.60
2019-03-22T13:16:08.664Z,7.90
2019-03-22T13:18:49.614Z,8.50
2019-03-22T13:21:12.752Z,7.50
2019-03-22T13:23:59.328Z,8.30
2019-03-22T13:26:30.539Z,8.23
2019-03-22T13:29:01.697Z,7.90
2019-03-22T13:31:32.983Z,8.83
2019-03-22T13:34:05.216Z,9.27
2019-03-22T13:36:37.712Z,8.60
2019-03-22T13:39:09.315Z,8.43
2019-03-22T13:41:51.849Z,7.07
2019-03-22T13:44:23.061Z,7.57
2019-03-22T13:47:15.750Z,7.03
2019-03-22T13:49:46.903Z,7.70
2019-03-22T13:52:18.049Z,8.40
2019-03-22T13:54:49.196Z,8.73
2019-03-22T13:57:20.366Z,7.60
2019-03-22T13:59:51.541Z,6.87
2019-03-22T14:02:34.294Z,7.03
2019-03-22T14:05:06.821Z,6.90
2019-03-22T14:07:41.860Z,6.50
2019-03-22T14:10:28.001Z,7.20
2019-03-22T14:13:11.449Z,5.93
2019-03-22T14:15:42.584Z,5.70
2019-03-22T14:18:39.661Z,5.97
2019-03-22T14:21:10.841Z,5.73
2019-03-22T14:23:51.211Z,6.13
2019-03-22T14:26:22.354Z,6.03
2019-03-22T14:28:53.525Z,5.20
2019-03-22T14:31:50.538Z,5.43
2019-03-22T14:34:35.488Z,4.53
2019-03-22T14:37:11.702Z,4.73
2019-03-22T14:39:42.834Z,4.97
2019-03-22T14:42:16.166Z,4.87
2019-03-22T14:44:47.281Z,4.23
2019-03-22T14:47:18.478Z,3.70
2019-03-22T14:49:49.697Z,3.60
2019-03-22T14:52:20.783Z,4.00
2019-03-22T14:54:59.991Z,4.37
2019-03-22T14:57:48.057Z,4.63
2019-03-22T15:00:11.727Z,4.53
2019-03-22T15:02:42.944Z,3.63
2019-03-22T15:05:24.456Z,3.43
2019-03-22T15:07:57.638Z,2.80
2019-03-22T15:10:28.859Z,2.33
2019-03-22T15:13:00.251Z,2.60
2019-03-22T15:15:50.524Z,2.53
2019-03-22T15:18:38.012Z,2.30
2019-03-22T15:21:42.202Z,2.13
2019-03-22T15:24:29.914Z,2.30
2019-03-22T15:27:18.935Z,2.17
2019-03-22T15:29:57.735Z,2.50
2019-03-22T15:33:16.454Z,2.80
2019-03-22T15:35:49.396Z,2.50
2019-03-22T15:38:39.624Z,1.90
2019-03-22T15:41:27.142Z,2.60
2019-03-22T15:43:58.308Z,1.90
2019-03-22T15:46:31.444Z,2.10
2019-03-22T15:49:02.659Z,2.33
2019-03-22T15:51:42.753Z,2.60
2019-03-22T15:54:14.029Z,2.27
2019-03-22T15:56:47.186Z,2.20
2019-03-22T15:59:18.365Z,2.10
2019-03-22T16:01:54.049Z,2.33
2019-03-22T16:04:25.333Z,2.13
2019-03-22T16:06:56.459Z,1.90
2019-03-22T16:09:27.634Z,2.30
2019-03-22T16:11:58.870Z,2.20
2019-03-22T16:14:30.158Z,2.17
2019-03-22T16:17:02.474Z,2.30
2019-03-22T16:19:33.727Z,2.20
2019-03-22T16:22:05.227Z,2.20
2019-03-22T16:24:36.431Z,2.13
2019-03-22T16:27:07.896Z,2.10
2019-03-22T16:29:45.987Z,1.60
2019-03-22T16:32:17.483Z,2.03
2019-03-22T16:34:49.728Z,1.70
2019-03-22T16:37:21.100Z,2.20
2019-03-22T16:39:59.488Z,2.00
2019-03-22T16:42:30.620Z,2.10
2019-03-22T16:45:13.957Z,2.07
2019-03-22T16:47:45.103Z,2.30
2019-03-22T16:50:24.659Z,2.17
2019-03-22T16:53:01.492Z,1.70
2019-03-22T16:55:33.780Z,1.80
2019-03-22T16:58:10.834Z,1.87
2019-03-22T17:00:42.027Z,1.70
2019-03-22T17:03:22.704Z,1.77
2019-03-22T17:06:10.432Z,1.70
2019-03-22T17:09:01.070Z,1.43
2019-03-22T17:11:39.957Z,1.60
2019-03-22T17:14:21.821Z,1.50
2019-03-22T17:16:54.194Z,1.60
2019-03-22T17:19:26.569Z,1.80
2019-03-22T17:22:08.906Z,1.90
2019-03-22T17:24:40.108Z,1.80
2019-03-22T17:27:19.646Z,1.80
2019-03-22T17:29:55.379Z,1.90
2019-03-22T17:32:32.571Z,1.80
2019-03-22T17:35:06.467Z,2.47
2019-03-22T17:37:50.911Z,2.67
2019-03-22T17:40:22.282Z,2.60
2019-03-22T17:42:53.482Z,2.20
2019-03-22T17:45:30.466Z,2.10
2019-03-22T17:48:10.578Z,2.33
2019-03-22T17:50:46.986Z,2.23
2019-03-22T17:53:27.880Z,2.30
2019-03-22T17:55:59.456Z,4.37
2019-03-22T17:58:34.736Z,4.00
2019-03-22T18:01:07.329Z,4.10
2019-03-22T18:03:44.686Z,3.83
2019-03-22T18:06:15.997Z,2.97
2019-03-22T18:08:47.483Z,3.20
2019-03-22T18:11:19.206Z,3.20
2019-03-22T18:13:51.514Z,2.80
2019-03-22T18:16:28.794Z,2.83
2019-03-22T18:19:00.138Z,2.97
2019-03-22T18:21:36.869Z,2.87
2019-03-22T18:24:10.087Z,3.17
2019-03-22T18:26:52.797Z,2.80
2019-03-22T18:29:29.613Z,3.50
2019-03-22T18:32:05.145Z,3.00
2019-03-22T18:34:37.634Z,3.47
2019-03-22T18:37:15.267Z,3.73
2019-03-22T18:39:47.451Z,3.70
2019-03-22T18:42:28.025Z,3.20
2019-03-22T18:45:07.577Z,2.90
2019-03-22T18:47:40.597Z,3.00
2019-03-22T18:50:16.918Z,2.80
2019-03-22T18:52:48.400Z,2.50
2019-03-22T18:55:19.665Z,2.53
2019-03-22T18:57:55.436Z,3.37
2019-03-22T19:00:31.969Z,3.17
2019-03-22T19:03:03.403Z,3.30
2019-03-22T19:05:40.768Z,3.77
2019-03-22T19:08:16.311Z,3.80
2019-03-22T19:10:49.622Z,3.60
2019-03-22T19:13:30.326Z,3.67
2019-03-22T19:15:54.533Z,3.67
2019-03-22T19:18:29.008Z,3.40
2019-03-22T19:21:00.328Z,3.37
2019-03-22T19:23:31.652Z,3.53
2019-03-22T19:26:07.178Z,4.00
2019-03-22T19:28:38.544Z,3.80
2019-03-22T19:31:20.182Z,3.77
2019-03-22T19:33:55.141Z,3.97
2019-03-22T19:36:26.651Z,3.77
2019-03-22T19:38:58.413Z,3.97
2019-03-22T19:41:47.298Z,3.80
2019-03-22T19:44:22.316Z,4.03
2019-03-22T19:47:04.224Z,3.80
2019-03-22T19:49:35.818Z,3.37
2019-03-22T19:52:08.618Z,4.10
2019-03-22T19:54:46.896Z,3.73
2019-03-22T19:57:27.497Z,3.90
2019-03-22T19:59:59.322Z,3.63
2019-03-22T20:02:34.943Z,4.03
2019-03-22T20:05:10.723Z,3.77
2019-03-22T20:07:45.389Z,3.97
2019-03-22T20:10:22.194Z,4.03
2019-03-22T20:12:53.469Z,3.97
2019-03-22T20:15:34.875Z,4.47
2019-03-22T20:18:06.314Z,4.30
2019-03-22T20:20:37.615Z,4.70
2019-03-22T20:23:22.310Z,5.67
2019-03-22T20:26:00.501Z,5.60
2019-03-22T20:28:31.840Z,5.13
2019-03-22T20:31:03.417Z,5.30
2019-03-22T20:33:41.696Z,4.60
2019-03-22T20:36:14.305Z,5.70
2019-03-22T20:38:45.662Z,5.37
2019-03-22T20:41:18.238Z,4.60
2019-03-22T20:43:49.773Z,4.50
2019-03-22T20:46:23.445Z,4.20
2019-03-22T20:48:57.936Z,4.40
2019-03-22T20:51:34.736Z,4.60
2019-03-22T20:54:06.329Z,4.97
2019-03-22T20:56:42.529Z,4.93
2019-03-22T20:59:15.681Z,4.53
2019-03-22T21:01:52.204Z,5.23
2019-03-22T21:04:33.109Z,4.47
2019-03-22T21:07:08.669Z,4.43
2019-03-22T21:09:43.706Z,5.83
2019-03-22T21:12:22.933Z,5.13
2019-03-22T21:14:54.439Z,5.50
2019-03-22T21:17:26.538Z,5.10
2019-03-22T21:20:02.616Z,5.40
2019-03-22T21:22:47.349Z,6.27
2019-03-22T21:25:23.758Z,6.87
2019-03-22T21:27:55.017Z,6.20
2019-03-22T21:30:28.210Z,5.73
2019-03-22T21:33:01.420Z,5.67
2019-03-22T21:35:39.088Z,5.80
2019-03-22T21:38:11.380Z,5.90
2019-03-22T21:40:48.035Z,5.40
2019-03-22T21:43:32.303Z,5.87
2019-03-22T21:46:03.708Z,6.20
2019-03-22T21:48:44.911Z,6.07
2019-03-22T21:51:16.247Z,7.43
2019-03-22T21:53:47.671Z,8.70
2019-03-22T21:56:23.905Z,11.27
2019-03-22T21:58:56.446Z,16.17
2019-03-22T22:01:40.790Z,16.80
2019-03-22T22:04:12.400Z,14.93
2019-03-22T22:07:04.612Z,12.10
2019-03-22T22:09:36.111Z,11.80
2019-03-22T22:12:09.353Z,10.23
2019-03-22T22:14:41.267Z,9.97
2019-03-22T22:17:14.767Z,8.43
2019-03-22T22:19:51.178Z,8.07
2019-03-22T22:22:31.733Z,8.70
2019-03-22T22:25:18.323Z,8.57
2019-03-22T22:27:50.067Z,9.90
2019-03-22T22:30:21.792Z,9.33
2019-03-22T22:32:54.144Z,9.40
2019-03-22T22:35:25.444Z,7.93
2019-03-22T22:38:08.609Z,8.60
2019-03-22T22:40:39.854Z,7.33
2019-03-22T22:43:11.084Z,6.70
2019-03-22T22:45:46.006Z,7.37
2019-03-22T22:48:17.572Z,7.00
2019-03-22T22:50:49.055Z,7.20
2019-03-22T22:53:20.307Z,6.83
2019-03-22T22:55:52.595Z,6.57
2019-03-22T22:58:23.749Z,7.17
2019-03-22T23:00:56.212Z,6.73
2019-03-22T23:03:41.003Z,6.43
2019-03-22T23:06:13.514Z,6.33
2019-03-22T23:08:44.785Z,6.97
2019-03-22T23:11:18.227Z,6.37
2019-03-22T23:13:49.613Z,6.00
2019-03-22T23:16:20.917Z,6.53
2019-03-22T23:19:03.715Z,6.63
2019-03-22T23:21:40.519Z,6.13
2019-03-22T23:24:13.967Z,6.93
2019-03-22T23:26:45.486Z,6.93
2019-03-22T23:29:18.148Z,7.30
2019-03-22T23:31:56.746Z,7.53
2019-03-22T23:34:31.101Z,7.47
2019-03-22T23:37:07.182Z,8.17
2019-03-22T23:40:03.987Z,9.70
2019-03-22T23:42:36.038Z,8.53
2019-03-22T23:45:19.313Z,9.33
2019-03-22T23:47:52.888Z,8.67
2019-03-22T23:50:29.928Z,7.90
2019-03-22T23:53:09.063Z,8.33
2019-03-22T23:56:05.395Z,8.13
2019-03-22T23:58:41.822Z,8.17
